sensor_id;sensor_type;location;lat;lon;timestamp;P1;durP1;ratioP1;P2;durP2;ratioP2
74959;SDS011;63518;49.572;1.106;2023-05-07T00:01:57;4.65;;;1.42;;
74959;SDS011;63518;49.572;1.106;2023-05-07T00:04:23;7.72;;;1.65;;
74959;SDS011;63518;49.572;1.106;2023-05-07T00:06:50;4.70;;;1.02;;
74959;SDS011;63518;49.572;1.106;2023-05-07T00:09:17;4.68;;;1.58;;
74959;SDS011;63518;49.572;1.106;2023-05-07T00:11:44;4.15;;;1.50;;
74959;SDS011;63518;49.572;1.106;2023-05-07T00:14:11;5.88;;;1.58;;
74959;SDS011;63518;49.572;1.106;2023-05-07T00:16:37;5.10;;;1.30;;
74959;SDS011;63518;49.572;1.106;2023-05-07T00:19:04;5.53;;;1.92;;
74959;SDS011;63518;49.572;1.106;2023-05-07T00:21:31;6.30;;;1.50;;
74959;SDS011;63518;49.572;1.106;2023-05-07T00:23:58;6.32;;;1.50;;
74959;SDS011;63518;49.572;1.106;2023-05-07T00:26:24;5.60;;;1.90;;
74959;SDS011;63518;49.572;1.106;2023-05-07T00:28:51;5.90;;;2.00;;
74959;SDS011;63518;49.572;1.106;2023-05-07T00:31:18;7.20;;;2.40;;
74959;SDS011;63518;49.572;1.106;2023-05-07T00:33:45;6.47;;;2.78;;
74959;SDS011;63518;49.572;1.106;2023-05-07T00:36:11;8.57;;;2.95;;
74959;SDS011;63518;49.572;1.106;2023-05-07T00:38:38;8.93;;;2.83;;
74959;SDS011;63518;49.572;1.106;2023-05-07T00:41:05;8.15;;;2.65;;
74959;SDS011;63518;49.572;1.106;2023-05-07T00:43:32;6.25;;;2.47;;
74959;SDS011;63518;49.572;1.106;2023-05-07T00:45:59;8.23;;;3.05;;
74959;SDS011;63518;49.572;1.106;2023-05-07T00:48:27;8.35;;;3.25;;
74959;SDS011;63518;49.572;1.106;2023-05-07T00:50:53;8.57;;;3.22;;
74959;SDS011;63518;49.572;1.106;2023-05-07T00:53:21;9.55;;;2.95;;
74959;SDS011;63518;49.572;1.106;2023-05-07T00:55:47;7.65;;;3.03;;
74959;SDS011;63518;49.572;1.106;2023-05-07T00:58:14;9.55;;;2.95;;
74959;SDS011;63518;49.572;1.106;2023-05-07T01:00:42;6.85;;;2.45;;
74959;SDS011;63518;49.572;1.106;2023-05-07T01:03:09;7.10;;;3.03;;
74959;SDS011;63518;49.572;1.106;2023-05-07T01:05:36;6.28;;;2.67;;
74959;SDS011;63518;49.572;1.106;2023-05-07T01:08:03;6.93;;;2.67;;
74959;SDS011;63518;49.572;1.106;2023-05-07T01:10:31;9.40;;;3.15;;
74959;SDS011;63518;49.572;1.106;2023-05-07T01:12:58;9.48;;;3.03;;
74959;SDS011;63518;49.572;1.106;2023-05-07T01:15:26;8.93;;;2.70;;
74959;SDS011;63518;49.572;1.106;2023-05-07T01:17:53;7.82;;;3.00;;
74959;SDS011;63518;49.572;1.106;2023-05-07T01:20:20;7.03;;;2.55;;
74959;SDS011;63518;49.572;1.106;2023-05-07T01:22:47;7.57;;;2.90;;
74959;SDS011;63518;49.572;1.106;2023-05-07T01:25:14;7.25;;;2.85;;
74959;SDS011;63518;49.572;1.106;2023-05-07T01:27:42;7.55;;;2.42;;
74959;SDS011;63518;49.572;1.106;2023-05-07T01:30:09;7.45;;;2.65;;
74959;SDS011;63518;49.572;1.106;2023-05-07T01:35:04;9.52;;;2.80;;
74959;SDS011;63518;49.572;1.106;2023-05-07T01:40:00;5.60;;;2.25;;
74959;SDS011;63518;49.572;1.106;2023-05-07T01:42:28;6.05;;;2.22;;
74959;SDS011;63518;49.572;1.106;2023-05-07T01:44:55;8.20;;;2.38;;
74959;SDS011;63518;49.572;1.106;2023-05-07T01:47:22;5.55;;;2.30;;
74959;SDS011;63518;49.572;1.106;2023-05-07T01:49:50;8.82;;;2.22;;
74959;SDS011;63518;49.572;1.106;2023-05-07T01:52:17;7.40;;;2.50;;
74959;SDS011;63518;49.572;1.106;2023-05-07T01:54:43;6.88;;;3.35;;
74959;SDS011;63518;49.572;1.106;2023-05-07T01:57:10;9.98;;;3.30;;
74959;SDS011;63518;49.572;1.106;2023-05-07T01:59:37;7.18;;;3.42;;
74959;SDS011;63518;49.572;1.106;2023-05-07T02:02:04;7.38;;;3.13;;
74959;SDS011;63518;49.572;1.106;2023-05-07T02:04:31;8.52;;;3.28;;
74959;SDS011;63518;49.572;1.106;2023-05-07T02:06:58;13.65;;;3.60;;
74959;SDS011;63518;49.572;1.106;2023-05-07T02:09:25;9.07;;;3.00;;
74959;SDS011;63518;49.572;1.106;2023-05-07T02:11:51;9.73;;;3.78;;
74959;SDS011;63518;49.572;1.106;2023-05-07T02:14:18;12.02;;;3.05;;
74959;SDS011;63518;49.572;1.106;2023-05-07T02:16:46;5.88;;;2.63;;
74959;SDS011;63518;49.572;1.106;2023-05-07T02:19:13;7.88;;;3.40;;
74959;SDS011;63518;49.572;1.106;2023-05-07T02:21:40;7.07;;;3.20;;
74959;SDS011;63518;49.572;1.106;2023-05-07T02:24:07;6.50;;;3.10;;
74959;SDS011;63518;49.572;1.106;2023-05-07T02:26:33;9.48;;;3.22;;
74959;SDS011;63518;49.572;1.106;2023-05-07T02:29:00;8.35;;;3.45;;
74959;SDS011;63518;49.572;1.106;2023-05-07T02:31:27;6.63;;;2.70;;
74959;SDS011;63518;49.572;1.106;2023-05-07T02:33:54;8.95;;;3.13;;
74959;SDS011;63518;49.572;1.106;2023-05-07T02:36:21;8.30;;;3.17;;
74959;SDS011;63518;49.572;1.106;2023-05-07T02:38:47;7.70;;;3.17;;
74959;SDS011;63518;49.572;1.106;2023-05-07T02:41:14;9.35;;;3.30;;
74959;SDS011;63518;49.572;1.106;2023-05-07T02:43:41;9.27;;;3.50;;
74959;SDS011;63518;49.572;1.106;2023-05-07T02:46:08;8.30;;;3.10;;
74959;SDS011;63518;49.572;1.106;2023-05-07T02:48:35;7.80;;;2.92;;
74959;SDS011;63518;49.572;1.106;2023-05-07T02:51:02;6.80;;;2.92;;
74959;SDS011;63518;49.572;1.106;2023-05-07T02:53:30;9.88;;;3.03;;
74959;SDS011;63518;49.572;1.106;2023-05-07T02:55:57;8.20;;;3.33;;
74959;SDS011;63518;49.572;1.106;2023-05-07T02:58:24;7.47;;;3.42;;
74959;SDS011;63518;49.572;1.106;2023-05-07T03:00:52;8.23;;;3.25;;
74959;SDS011;63518;49.572;1.106;2023-05-07T03:03:21;10.90;;;3.40;;
74959;SDS011;63518;49.572;1.106;2023-05-07T03:05:47;8.82;;;3.22;;
74959;SDS011;63518;49.572;1.106;2023-05-07T03:08:14;10.77;;;3.50;;
74959;SDS011;63518;49.572;1.106;2023-05-07T03:10:41;8.43;;;3.30;;
74959;SDS011;63518;49.572;1.106;2023-05-07T03:13:07;9.27;;;3.38;;
74959;SDS011;63518;49.572;1.106;2023-05-07T03:15:34;7.78;;;2.85;;
74959;SDS011;63518;49.572;1.106;2023-05-07T03:18:01;9.05;;;3.70;;
74959;SDS011;63518;49.572;1.106;2023-05-07T03:20:28;8.93;;;3.42;;
74959;SDS011;63518;49.572;1.106;2023-05-07T03:22:56;7.50;;;3.15;;
74959;SDS011;63518;49.572;1.106;2023-05-07T03:25:23;6.60;;;2.92;;
74959;SDS011;63518;49.572;1.106;2023-05-07T03:27:50;6.30;;;2.53;;
74959;SDS011;63518;49.572;1.106;2023-05-07T03:30:16;8.20;;;3.00;;
74959;SDS011;63518;49.572;1.106;2023-05-07T03:32:43;7.63;;;3.20;;
74959;SDS011;63518;49.572;1.106;2023-05-07T03:35:10;7.97;;;3.00;;
74959;SDS011;63518;49.572;1.106;2023-05-07T03:37:37;7.00;;;2.60;;
74959;SDS011;63518;49.572;1.106;2023-05-07T03:40:05;8.02;;;2.83;;
74959;SDS011;63518;49.572;1.106;2023-05-07T03:42:32;10.02;;;3.42;;
74959;SDS011;63518;49.572;1.106;2023-05-07T03:44:58;8.43;;;2.83;;
74959;SDS011;63518;49.572;1.106;2023-05-07T03:47:26;7.07;;;2.83;;
74959;SDS011;63518;49.572;1.106;2023-05-07T03:49:53;8.75;;;3.38;;
74959;SDS011;63518;49.572;1.106;2023-05-07T03:52:21;7.35;;;3.30;;
74959;SDS011;63518;49.572;1.106;2023-05-07T03:54:52;8.07;;;3.47;;
74959;SDS011;63518;49.572;1.106;2023-05-07T03:57:19;8.50;;;3.50;;
74959;SDS011;63518;49.572;1.106;2023-05-07T03:59:46;8.73;;;3.60;;
74959;SDS011;63518;49.572;1.106;2023-05-07T04:02:13;6.93;;;3.47;;
74959;SDS011;63518;49.572;1.106;2023-05-07T04:04:40;8.88;;;3.47;;
74959;SDS011;63518;49.572;1.106;2023-05-07T04:07:06;7.75;;;3.58;;
74959;SDS011;63518;49.572;1.106;2023-05-07T04:09:33;7.68;;;3.13;;
74959;SDS011;63518;49.572;1.106;2023-05-07T04:12:00;7.13;;;2.80;;
74959;SDS011;63518;49.572;1.106;2023-05-07T04:14:27;8.73;;;3.70;;
74959;SDS011;63518;49.572;1.106;2023-05-07T04:16:54;10.05;;;3.42;;
74959;SDS011;63518;49.572;1.106;2023-05-07T04:19:21;7.82;;;3.20;;
74959;SDS011;63518;49.572;1.106;2023-05-07T04:21:48;8.00;;;4.03;;
74959;SDS011;63518;49.572;1.106;2023-05-07T04:24:14;8.77;;;2.97;;
74959;SDS011;63518;49.572;1.106;2023-05-07T04:26:41;9.65;;;3.65;;
74959;SDS011;63518;49.572;1.106;2023-05-07T04:29:08;7.85;;;3.38;;
74959;SDS011;63518;49.572;1.106;2023-05-07T04:31:35;7.97;;;3.00;;
74959;SDS011;63518;49.572;1.106;2023-05-07T04:34:01;8.13;;;3.13;;
74959;SDS011;63518;49.572;1.106;2023-05-07T04:36:28;7.35;;;3.47;;
74959;SDS011;63518;49.572;1.106;2023-05-07T04:38:55;7.13;;;3.10;;
74959;SDS011;63518;49.572;1.106;2023-05-07T04:41:22;7.78;;;3.35;;
74959;SDS011;63518;49.572;1.106;2023-05-07T04:43:49;8.88;;;3.80;;
74959;SDS011;63518;49.572;1.106;2023-05-07T04:46:15;9.20;;;3.70;;
74959;SDS011;63518;49.572;1.106;2023-05-07T04:48:42;9.95;;;3.55;;
74959;SDS011;63518;49.572;1.106;2023-05-07T04:51:09;11.57;;;3.92;;
74959;SDS011;63518;49.572;1.106;2023-05-07T04:53:36;13.95;;;3.80;;
74959;SDS011;63518;49.572;1.106;2023-05-07T04:56:03;17.98;;;3.17;;
74959;SDS011;63518;49.572;1.106;2023-05-07T04:58:30;7.05;;;2.85;;
74959;SDS011;63518;49.572;1.106;2023-05-07T05:00:58;9.35;;;3.00;;
74959;SDS011;63518;49.572;1.106;2023-05-07T05:03:25;10.32;;;3.53;;
74959;SDS011;63518;49.572;1.106;2023-05-07T05:05:52;13.30;;;3.47;;
74959;SDS011;63518;49.572;1.106;2023-05-07T05:08:19;11.10;;;3.30;;
74959;SDS011;63518;49.572;1.106;2023-05-07T05:10:46;14.05;;;2.92;;
74959;SDS011;63518;49.572;1.106;2023-05-07T05:13:15;7.53;;;2.95;;
74959;SDS011;63518;49.572;1.106;2023-05-07T05:15:41;8.07;;;3.00;;
74959;SDS011;63518;49.572;1.106;2023-05-07T05:18:08;8.57;;;2.95;;
74959;SDS011;63518;49.572;1.106;2023-05-07T05:20:35;6.75;;;2.83;;
74959;SDS011;63518;49.572;1.106;2023-05-07T05:23:02;10.15;;;3.22;;
74959;SDS011;63518;49.572;1.106;2023-05-07T05:25:29;7.53;;;3.03;;
74959;SDS011;63518;49.572;1.106;2023-05-07T05:27:55;7.82;;;3.08;;
74959;SDS011;63518;49.572;1.106;2023-05-07T05:30:22;7.43;;;2.92;;
74959;SDS011;63518;49.572;1.106;2023-05-07T05:32:49;6.68;;;2.80;;
74959;SDS011;63518;49.572;1.106;2023-05-07T05:35:16;7.40;;;3.00;;
74959;SDS011;63518;49.572;1.106;2023-05-07T05:37:43;6.82;;;2.88;;
74959;SDS011;63518;49.572;1.106;2023-05-07T05:40:10;7.95;;;3.20;;
74959;SDS011;63518;49.572;1.106;2023-05-07T05:42:37;8.10;;;3.38;;
74959;SDS011;63518;49.572;1.106;2023-05-07T05:45:04;8.50;;;3.10;;
74959;SDS011;63518;49.572;1.106;2023-05-07T05:47:31;6.93;;;3.10;;
74959;SDS011;63518;49.572;1.106;2023-05-07T05:49:58;7.97;;;3.22;;
74959;SDS011;63518;49.572;1.106;2023-05-07T05:52:25;8.60;;;3.20;;
74959;SDS011;63518;49.572;1.106;2023-05-07T05:54:53;7.10;;;2.70;;
74959;SDS011;63518;49.572;1.106;2023-05-07T05:57:20;8.07;;;3.75;;
74959;SDS011;63518;49.572;1.106;2023-05-07T05:59:47;8.07;;;3.53;;
74959;SDS011;63518;49.572;1.106;2023-05-07T06:02:13;7.13;;;3.15;;
74959;SDS011;63518;49.572;1.106;2023-05-07T06:04:41;7.20;;;3.08;;
74959;SDS011;63518;49.572;1.106;2023-05-07T06:07:09;8.10;;;3.38;;
74959;SDS011;63518;49.572;1.106;2023-05-07T06:09:36;7.75;;;3.15;;
74959;SDS011;63518;49.572;1.106;2023-05-07T06:12:02;7.32;;;3.17;;
74959;SDS011;63518;49.572;1.106;2023-05-07T06:14:29;8.25;;;3.13;;
74959;SDS011;63518;49.572;1.106;2023-05-07T06:16:56;8.35;;;3.20;;
74959;SDS011;63518;49.572;1.106;2023-05-07T06:19:23;8.85;;;3.22;;
74959;SDS011;63518;49.572;1.106;2023-05-07T06:21:52;7.78;;;3.17;;
74959;SDS011;63518;49.572;1.106;2023-05-07T06:24:19;7.32;;;3.05;;
74959;SDS011;63518;49.572;1.106;2023-05-07T06:26:46;8.20;;;3.10;;
74959;SDS011;63518;49.572;1.106;2023-05-07T06:29:13;10.35;;;3.47;;
74959;SDS011;63518;49.572;1.106;2023-05-07T06:31:40;8.43;;;3.35;;
74959;SDS011;63518;49.572;1.106;2023-05-07T06:34:07;9.05;;;3.83;;
74959;SDS011;63518;49.572;1.106;2023-05-07T06:36:34;8.77;;;3.55;;
74959;SDS011;63518;49.572;1.106;2023-05-07T06:39:01;9.70;;;3.47;;
74959;SDS011;63518;49.572;1.106;2023-05-07T06:41:28;8.85;;;3.47;;
74959;SDS011;63518;49.572;1.106;2023-05-07T06:43:55;7.85;;;3.10;;
74959;SDS011;63518;49.572;1.106;2023-05-07T06:46:21;10.98;;;3.65;;
74959;SDS011;63518;49.572;1.106;2023-05-07T06:48:48;7.75;;;3.40;;
74959;SDS011;63518;49.572;1.106;2023-05-07T06:51:15;8.65;;;3.97;;
74959;SDS011;63518;49.572;1.106;2023-05-07T06:53:42;8.27;;;3.35;;
74959;SDS011;63518;49.572;1.106;2023-05-07T06:56:09;6.72;;;2.80;;
74959;SDS011;63518;49.572;1.106;2023-05-07T06:58:36;7.38;;;3.15;;
74959;SDS011;63518;49.572;1.106;2023-05-07T07:01:03;7.90;;;2.95;;
74959;SDS011;63518;49.572;1.106;2023-05-07T07:03:30;7.85;;;3.50;;
74959;SDS011;63518;49.572;1.106;2023-05-07T07:05:57;7.43;;;3.15;;
74959;SDS011;63518;49.572;1.106;2023-05-07T07:08:24;8.45;;;2.97;;
74959;SDS011;63518;49.572;1.106;2023-05-07T07:10:51;7.57;;;3.13;;
74959;SDS011;63518;49.572;1.106;2023-05-07T07:13:17;7.80;;;3.47;;
74959;SDS011;63518;49.572;1.106;2023-05-07T07:15:45;9.07;;;3.30;;
74959;SDS011;63518;49.572;1.106;2023-05-07T07:18:12;9.60;;;3.85;;
74959;SDS011;63518;49.572;1.106;2023-05-07T07:20:39;8.77;;;3.60;;
74959;SDS011;63518;49.572;1.106;2023-05-07T07:23:06;7.90;;;3.25;;
74959;SDS011;63518;49.572;1.106;2023-05-07T07:25:33;9.27;;;3.70;;
74959;SDS011;63518;49.572;1.106;2023-05-07T07:28:00;9.50;;;3.80;;
74959;SDS011;63518;49.572;1.106;2023-05-07T07:30:27;10.80;;;4.38;;
74959;SDS011;63518;49.572;1.106;2023-05-07T07:32:54;10.10;;;4.13;;
74959;SDS011;63518;49.572;1.106;2023-05-07T07:35:22;11.32;;;4.35;;
74959;SDS011;63518;49.572;1.106;2023-05-07T07:37:51;11.88;;;5.25;;
74959;SDS011;63518;49.572;1.106;2023-05-07T07:40:26;13.20;;;5.38;;
74959;SDS011;63518;49.572;1.106;2023-05-07T07:42:54;11.73;;;4.93;;
74959;SDS011;63518;49.572;1.106;2023-05-07T07:45:21;11.48;;;4.88;;
74959;SDS011;63518;49.572;1.106;2023-05-07T07:47:56;11.23;;;5.03;;
74959;SDS011;63518;49.572;1.106;2023-05-07T07:50:23;11.38;;;5.25;;
74959;SDS011;63518;49.572;1.106;2023-05-07T07:53:10;12.65;;;5.22;;
74959;SDS011;63518;49.572;1.106;2023-05-07T07:55:40;10.15;;;5.00;;
74959;SDS011;63518;49.572;1.106;2023-05-07T07:58:07;12.00;;;5.38;;
74959;SDS011;63518;49.572;1.106;2023-05-07T08:00:33;14.18;;;5.80;;
74959;SDS011;63518;49.572;1.106;2023-05-07T08:03:09;16.02;;;6.60;;
74959;SDS011;63518;49.572;1.106;2023-05-07T08:05:37;14.98;;;6.38;;
74959;SDS011;63518;49.572;1.106;2023-05-07T08:08:05;15.68;;;6.72;;
74959;SDS011;63518;49.572;1.106;2023-05-07T08:10:42;13.50;;;6.53;;
74959;SDS011;63518;49.572;1.106;2023-05-07T08:13:10;14.13;;;6.00;;
74959;SDS011;63518;49.572;1.106;2023-05-07T08:15:44;18.02;;;7.28;;
74959;SDS011;63518;49.572;1.106;2023-05-07T08:18:11;14.48;;;6.40;;
74959;SDS011;63518;49.572;1.106;2023-05-07T08:20:38;16.55;;;6.43;;
74959;SDS011;63518;49.572;1.106;2023-05-07T08:23:05;18.73;;;7.38;;
74959;SDS011;63518;49.572;1.106;2023-05-07T08:25:33;18.60;;;7.32;;
74959;SDS011;63518;49.572;1.106;2023-05-07T08:28:01;17.35;;;7.95;;
74959;SDS011;63518;49.572;1.106;2023-05-07T08:30:28;18.83;;;6.85;;
74959;SDS011;63518;49.572;1.106;2023-05-07T08:32:54;18.70;;;8.00;;
74959;SDS011;63518;49.572;1.106;2023-05-07T08:35:21;16.60;;;7.03;;
74959;SDS011;63518;49.572;1.106;2023-05-07T08:37:48;19.13;;;7.68;;
74959;SDS011;63518;49.572;1.106;2023-05-07T08:40:15;15.95;;;7.00;;
74959;SDS011;63518;49.572;1.106;2023-05-07T08:42:42;14.52;;;6.35;;
74959;SDS011;63518;49.572;1.106;2023-05-07T08:45:10;15.60;;;6.85;;
74959;SDS011;63518;49.572;1.106;2023-05-07T08:47:42;14.07;;;5.93;;
74959;SDS011;63518;49.572;1.106;2023-05-07T08:50:13;11.07;;;4.65;;
74959;SDS011;63518;49.572;1.106;2023-05-07T08:52:40;11.45;;;5.50;;
74959;SDS011;63518;49.572;1.106;2023-05-07T08:55:07;10.95;;;4.45;;
74959;SDS011;63518;49.572;1.106;2023-05-07T08:57:35;11.65;;;4.80;;
74959;SDS011;63518;49.572;1.106;2023-05-07T09:00:06;8.25;;;3.75;;
74959;SDS011;63518;49.572;1.106;2023-05-07T09:02:36;11.90;;;3.90;;
74959;SDS011;63518;49.572;1.106;2023-05-07T09:07:30;10.98;;;3.88;;
74959;SDS011;63518;49.572;1.106;2023-05-07T09:09:57;8.75;;;3.72;;
74959;SDS011;63518;49.572;1.106;2023-05-07T09:12:24;9.52;;;3.60;;
74959;SDS011;63518;49.572;1.106;2023-05-07T09:14:51;8.70;;;3.75;;
74959;SDS011;63518;49.572;1.106;2023-05-07T09:17:18;8.60;;;3.08;;
74959;SDS011;63518;49.572;1.106;2023-05-07T09:19:44;9.15;;;3.65;;
74959;SDS011;63518;49.572;1.106;2023-05-07T09:22:12;8.60;;;3.50;;
74959;SDS011;63518;49.572;1.106;2023-05-07T09:24:40;7.05;;;3.13;;
74959;SDS011;63518;49.572;1.106;2023-05-07T09:27:07;10.68;;;3.00;;
74959;SDS011;63518;49.572;1.106;2023-05-07T09:29:36;9.25;;;3.28;;
74959;SDS011;63518;49.572;1.106;2023-05-07T09:32:03;7.85;;;3.22;;
74959;SDS011;63518;49.572;1.106;2023-05-07T09:34:32;8.88;;;2.78;;
74959;SDS011;63518;49.572;1.106;2023-05-07T09:37:00;8.38;;;3.40;;
74959;SDS011;63518;49.572;1.106;2023-05-07T09:39:41;9.02;;;3.50;;
74959;SDS011;63518;49.572;1.106;2023-05-07T09:42:13;8.15;;;2.75;;
74959;SDS011;63518;49.572;1.106;2023-05-07T09:44:41;8.05;;;3.00;;
74959;SDS011;63518;49.572;1.106;2023-05-07T09:47:10;8.10;;;2.90;;
74959;SDS011;63518;49.572;1.106;2023-05-07T09:49:39;7.03;;;2.65;;
74959;SDS011;63518;49.572;1.106;2023-05-07T09:52:08;6.45;;;2.58;;
74959;SDS011;63518;49.572;1.106;2023-05-07T09:54:37;6.07;;;1.95;;
74959;SDS011;63518;49.572;1.106;2023-05-07T09:57:04;7.35;;;2.10;;
74959;SDS011;63518;49.572;1.106;2023-05-07T09:59:33;5.63;;;1.95;;
74959;SDS011;63518;49.572;1.106;2023-05-07T10:02:03;8.63;;;2.47;;
74959;SDS011;63518;49.572;1.106;2023-05-07T10:04:31;7.18;;;2.38;;
74959;SDS011;63518;49.572;1.106;2023-05-07T10:06:58;7.95;;;3.00;;
74959;SDS011;63518;49.572;1.106;2023-05-07T10:09:26;5.28;;;1.92;;
74959;SDS011;63518;49.572;1.106;2023-05-07T10:11:53;6.25;;;1.80;;
74959;SDS011;63518;49.572;1.106;2023-05-07T10:14:21;5.05;;;1.50;;
74959;SDS011;63518;49.572;1.106;2023-05-07T10:16:48;5.50;;;1.27;;
74959;SDS011;63518;49.572;1.106;2023-05-07T10:19:15;4.30;;;1.30;;
74959;SDS011;63518;49.572;1.106;2023-05-07T10:21:44;3.65;;;1.17;;
74959;SDS011;63518;49.572;1.106;2023-05-07T10:24:29;5.00;;;1.58;;
74959;SDS011;63518;49.572;1.106;2023-05-07T10:32:50;4.50;;;1.48;;
74959;SDS011;63518;49.572;1.106;2023-05-07T10:35:21;4.93;;;1.20;;
74959;SDS011;63518;49.572;1.106;2023-05-07T10:37:53;4.93;;;1.73;;
74959;SDS011;63518;49.572;1.106;2023-05-07T10:40:20;4.30;;;1.05;;
74959;SDS011;63518;49.572;1.106;2023-05-07T10:43:03;4.32;;;1.58;;
74959;SDS011;63518;49.572;1.106;2023-05-07T10:45:35;4.18;;;1.20;;
74959;SDS011;63518;49.572;1.106;2023-05-07T10:48:15;4.70;;;1.80;;
74959;SDS011;63518;49.572;1.106;2023-05-07T10:51:29;5.20;;;1.33;;
74959;SDS011;63518;49.572;1.106;2023-05-07T10:53:48;6.13;;;2.00;;
74959;SDS011;63518;49.572;1.106;2023-05-07T10:56:41;5.03;;;1.60;;
74959;SDS011;63518;49.572;1.106;2023-05-07T11:01:54;7.13;;;2.38;;
74959;SDS011;63518;49.572;1.106;2023-05-07T11:04:22;5.70;;;2.13;;
74959;SDS011;63518;49.572;1.106;2023-05-07T11:15:05;9.00;;;2.63;;
74959;SDS011;63518;49.572;1.106;2023-05-07T11:17:57;6.72;;;2.83;;
74959;SDS011;63518;49.572;1.106;2023-05-07T11:20:44;7.10;;;2.20;;
74959;SDS011;63518;49.572;1.106;2023-05-07T11:26:04;7.22;;;2.30;;
74959;SDS011;63518;49.572;1.106;2023-05-07T11:28:39;6.40;;;2.50;;
74959;SDS011;63518;49.572;1.106;2023-05-07T11:31:10;7.10;;;2.53;;
74959;SDS011;63518;49.572;1.106;2023-05-07T11:33:37;7.40;;;2.70;;
74959;SDS011;63518;49.572;1.106;2023-05-07T11:36:05;6.15;;;2.05;;
74959;SDS011;63518;49.572;1.106;2023-05-07T11:38:34;7.47;;;2.50;;
74959;SDS011;63518;49.572;1.106;2023-05-07T11:41:02;6.60;;;2.05;;
74959;SDS011;63518;49.572;1.106;2023-05-07T11:43:31;8.02;;;2.22;;
74959;SDS011;63518;49.572;1.106;2023-05-07T11:46:06;6.75;;;2.30;;
74959;SDS011;63518;49.572;1.106;2023-05-07T11:48:35;7.20;;;2.10;;
74959;SDS011;63518;49.572;1.106;2023-05-07T11:51:04;5.75;;;2.22;;
74959;SDS011;63518;49.572;1.106;2023-05-07T11:56:09;6.93;;;2.00;;
74959;SDS011;63518;49.572;1.106;2023-05-07T11:58:37;8.40;;;2.80;;
74959;SDS011;63518;49.572;1.106;2023-05-07T12:01:09;6.55;;;2.67;;
74959;SDS011;63518;49.572;1.106;2023-05-07T12:03:41;6.00;;;2.40;;
74959;SDS011;63518;49.572;1.106;2023-05-07T12:06:13;5.53;;;2.00;;
74959;SDS011;63518;49.572;1.106;2023-05-07T12:08:41;5.28;;;2.30;;
74959;SDS011;63518;49.572;1.106;2023-05-07T12:11:13;6.40;;;2.20;;
74959;SDS011;63518;49.572;1.106;2023-05-07T12:13:49;5.65;;;1.80;;
74959;SDS011;63518;49.572;1.106;2023-05-07T12:16:17;5.32;;;1.52;;
74959;SDS011;63518;49.572;1.106;2023-05-07T12:18:49;4.82;;;1.70;;
74959;SDS011;63518;49.572;1.106;2023-05-07T12:21:19;7.63;;;1.98;;
74959;SDS011;63518;49.572;1.106;2023-05-07T12:23:47;4.75;;;1.63;;
74959;SDS011;63518;49.572;1.106;2023-05-07T12:26:18;5.00;;;1.60;;
74959;SDS011;63518;49.572;1.106;2023-05-07T12:28:57;6.03;;;2.40;;
74959;SDS011;63518;49.572;1.106;2023-05-07T12:31:25;6.65;;;2.00;;
74959;SDS011;63518;49.572;1.106;2023-05-07T12:33:57;5.65;;;2.00;;
74959;SDS011;63518;49.572;1.106;2023-05-07T12:36:40;6.20;;;2.00;;
74959;SDS011;63518;49.572;1.106;2023-05-07T12:39:16;6.73;;;2.87;;
74959;SDS011;63518;49.572;1.106;2023-05-07T12:41:57;8.27;;;3.50;;
74959;SDS011;63518;49.572;1.106;2023-05-07T12:44:36;7.50;;;3.30;;
74959;SDS011;63518;49.572;1.106;2023-05-07T12:47:04;7.10;;;3.42;;
74959;SDS011;63518;49.572;1.106;2023-05-07T12:49:40;7.88;;;3.83;;
74959;SDS011;63518;49.572;1.106;2023-05-07T12:52:08;7.00;;;3.67;;
74959;SDS011;63518;49.572;1.106;2023-05-07T12:54:49;8.45;;;4.07;;
74959;SDS011;63518;49.572;1.106;2023-05-07T12:57:18;8.27;;;4.13;;
74959;SDS011;63518;49.572;1.106;2023-05-07T12:59:52;7.97;;;3.88;;
74959;SDS011;63518;49.572;1.106;2023-05-07T13:02:31;10.48;;;4.10;;
74959;SDS011;63518;49.572;1.106;2023-05-07T13:05:04;9.27;;;4.35;;
74959;SDS011;63518;49.572;1.106;2023-05-07T13:07:31;8.67;;;4.63;;
74959;SDS011;63518;49.572;1.106;2023-05-07T13:09:59;8.13;;;4.50;;
74959;SDS011;63518;49.572;1.106;2023-05-07T13:12:26;10.07;;;4.40;;
74959;SDS011;63518;49.572;1.106;2023-05-07T13:14:53;8.83;;;4.20;;
74959;SDS011;63518;49.572;1.106;2023-05-07T13:17:19;8.57;;;4.17;;
74959;SDS011;63518;49.572;1.106;2023-05-07T13:19:46;7.60;;;4.07;;
74959;SDS011;63518;49.572;1.106;2023-05-07T13:22:13;8.63;;;4.07;;
74959;SDS011;63518;49.572;1.106;2023-05-07T13:24:40;8.88;;;3.95;;
74959;SDS011;63518;49.572;1.106;2023-05-07T13:27:08;8.80;;;4.30;;
74959;SDS011;63518;49.572;1.106;2023-05-07T13:29:35;8.13;;;4.25;;
74959;SDS011;63518;49.572;1.106;2023-05-07T13:32:01;7.88;;;4.43;;
74959;SDS011;63518;49.572;1.106;2023-05-07T13:34:28;7.50;;;3.97;;
74959;SDS011;63518;49.572;1.106;2023-05-07T13:36:55;8.05;;;4.80;;
74959;SDS011;63518;49.572;1.106;2023-05-07T13:39:25;8.48;;;4.57;;
74959;SDS011;63518;49.572;1.106;2023-05-07T13:41:52;9.02;;;4.72;;
74959;SDS011;63518;49.572;1.106;2023-05-07T13:44:18;9.00;;;4.73;;
74959;SDS011;63518;49.572;1.106;2023-05-07T13:46:47;8.57;;;4.45;;
74959;SDS011;63518;49.572;1.106;2023-05-07T13:49:14;8.77;;;4.60;;
74959;SDS011;63518;49.572;1.106;2023-05-07T13:51:41;7.90;;;4.28;;
74959;SDS011;63518;49.572;1.106;2023-05-07T13:54:08;9.38;;;3.88;;
74959;SDS011;63518;49.572;1.106;2023-05-07T13:56:35;7.55;;;4.25;;
74959;SDS011;63518;49.572;1.106;2023-05-07T13:59:01;7.72;;;4.35;;
74959;SDS011;63518;49.572;1.106;2023-05-07T14:01:28;7.83;;;4.17;;
74959;SDS011;63518;49.572;1.106;2023-05-07T14:04:06;7.45;;;3.70;;
74959;SDS011;63518;49.572;1.106;2023-05-07T14:06:34;6.80;;;3.65;;
74959;SDS011;63518;49.572;1.106;2023-05-07T14:09:01;8.05;;;3.35;;
74959;SDS011;63518;49.572;1.106;2023-05-07T14:11:28;6.18;;;3.10;;
74959;SDS011;63518;49.572;1.106;2023-05-07T14:13:57;6.70;;;3.20;;
74959;SDS011;63518;49.572;1.106;2023-05-07T14:16:34;5.45;;;2.72;;
74959;SDS011;63518;49.572;1.106;2023-05-07T14:19:01;6.55;;;2.65;;
74959;SDS011;63518;49.572;1.106;2023-05-07T14:21:28;5.45;;;2.80;;
74959;SDS011;63518;49.572;1.106;2023-05-07T14:23:55;5.68;;;2.80;;
74959;SDS011;63518;49.572;1.106;2023-05-07T14:26:23;5.70;;;2.50;;
74959;SDS011;63518;49.572;1.106;2023-05-07T14:28:50;5.85;;;3.30;;
74959;SDS011;63518;49.572;1.106;2023-05-07T14:31:16;6.05;;;2.90;;
74959;SDS011;63518;49.572;1.106;2023-05-07T14:33:43;6.00;;;3.38;;
74959;SDS011;63518;49.572;1.106;2023-05-07T14:36:10;7.22;;;3.40;;
74959;SDS011;63518;49.572;1.106;2023-05-07T14:38:37;6.78;;;3.90;;
74959;SDS011;63518;49.572;1.106;2023-05-07T14:41:03;6.57;;;3.60;;
74959;SDS011;63518;49.572;1.106;2023-05-07T14:43:30;6.47;;;3.40;;
74959;SDS011;63518;49.572;1.106;2023-05-07T14:45:57;6.55;;;3.35;;
74959;SDS011;63518;49.572;1.106;2023-05-07T14:48:24;6.53;;;3.33;;
74959;SDS011;63518;49.572;1.106;2023-05-07T14:50:51;6.10;;;2.88;;
74959;SDS011;63518;49.572;1.106;2023-05-07T14:53:18;5.80;;;2.97;;
74959;SDS011;63518;49.572;1.106;2023-05-07T14:55:45;5.80;;;3.10;;
74959;SDS011;63518;49.572;1.106;2023-05-07T14:58:12;6.20;;;3.10;;
74959;SDS011;63518;49.572;1.106;2023-05-07T15:00:39;6.88;;;2.97;;
74959;SDS011;63518;49.572;1.106;2023-05-07T15:03:06;8.60;;;4.57;;
74959;SDS011;63518;49.572;1.106;2023-05-07T15:05:35;7.07;;;3.15;;
74959;SDS011;63518;49.572;1.106;2023-05-07T15:08:02;6.75;;;3.28;;
74959;SDS011;63518;49.572;1.106;2023-05-07T15:10:29;7.38;;;3.53;;
74959;SDS011;63518;49.572;1.106;2023-05-07T15:12:56;7.03;;;3.65;;
74959;SDS011;63518;49.572;1.106;2023-05-07T15:15:22;7.03;;;3.88;;
74959;SDS011;63518;49.572;1.106;2023-05-07T15:17:49;6.30;;;3.42;;
74959;SDS011;63518;49.572;1.106;2023-05-07T15:20:16;7.40;;;3.75;;
74959;SDS011;63518;49.572;1.106;2023-05-07T15:22:43;7.50;;;3.72;;